Time,TemperatureF,DewpointF,PressureIn,WindDirection,WindDirectionDegrees,WindSpeedMPH,WindSpeedGustMPH,Humidity,HourlyPrecipIn,Conditions,Clouds,dailyrainin,SolarRadiationWatts/m^2,SoftwareType,DateUTC
2013-02-16 00:02:00,33.0,21.0,-100.00,WSW,250,6.0,16.0,62,0.00,,,0.02,0.000000,,2013-02-16 07:02:00,
2013-02-16 00:11:00,33.0,21.0,-100.00,WSW,250,6.0,16.0,62,0.00,,,0.02,0.000000,,2013-02-16 07:11:00,
2013-02-16 00:21:00,33.0,21.0,-100.00,WSW,250,6.0,16.0,62,0.00,,,0.02,0.000000,,2013-02-16 07:21:00,
2013-02-16 00:42:00,36.0,25.0,-100.00,West,266,8.0,13.0,63,0.00,,,0.02,0.000000,,2013-02-16 07:42:00,
2013-02-16 00:53:00,36.0,25.0,-100.00,West,266,8.0,13.0,63,0.00,,,0.02,0.000000,,2013-02-16 07:53:00,
2013-02-16 01:01:00,36.0,25.0,-100.00,West,266,8.0,13.0,63,0.00,,,0.02,0.000000,,2013-02-16 08:01:00,
2013-02-16 01:11:00,36.0,25.0,-100.00,West,266,8.0,13.0,63,0.00,,,0.02,0.000000,,2013-02-16 08:11:00,
2013-02-16 01:21:00,36.0,25.0,-100.00,West,266,8.0,13.0,63,0.00,,,0.02,0.000000,,2013-02-16 08:21:00,
2013-02-16 01:52:00,36.0,26.0,-100.00,West,281,7.0,17.0,66,0.00,,,0.02,0.000000,,2013-02-16 08:52:00,
2013-02-16 02:01:00,36.0,26.0,-100.00,West,281,7.0,17.0,66,0.00,,,0.02,0.000000,,2013-02-16 09:01:00,
2013-02-16 02:11:00,36.0,26.0,-100.00,West,281,7.0,17.0,66,0.00,,,0.02,0.000000,,2013-02-16 09:11:00,
2013-02-16 02:21:00,36.0,26.0,-100.00,West,281,7.0,17.0,66,0.00,,,0.02,0.000000,,2013-02-16 09:21:00,
2013-02-16 02:52:00,37.0,26.0,-100.00,WNW,282,7.0,17.0,65,0.00,,,0.02,0.000000,,2013-02-16 09:52:00,
2013-02-16 03:01:00,37.0,26.0,-100.00,WNW,282,7.0,17.0,65,0.00,,,0.02,0.000000,,2013-02-16 10:01:00,
2013-02-16 03:11:00,37.0,26.0,-100.00,WNW,282,7.0,17.0,65,0.00,,,0.02,0.000000,,2013-02-16 10:11:00,
2013-02-16 03:21:00,37.0,26.0,-100.00,WNW,282,7.0,17.0,65,0.00,,,0.02,0.000000,,2013-02-16 10:21:00,
2013-02-16 03:52:00,39.0,29.0,-100.00,West,281,6.0,15.0,67,0.00,,,0.02,0.000000,,2013-02-16 10:52:00,
2013-02-16 04:02:00,39.0,29.0,-100.00,West,281,6.0,15.0,67,0.00,,,0.02,0.000000,,2013-02-16 11:02:00,
2013-02-16 04:11:00,39.0,29.0,-100.00,West,281,6.0,15.0,67,0.00,,,0.02,0.000000,,2013-02-16 11:11:00,
2013-02-16 04:22:00,39.0,29.0,-100.00,West,281,6.0,15.0,67,0.00,,,0.02,0.000000,,2013-02-16 11:22:00,
2013-02-16 04:52:00,36.0,28.0,-100.00,West,271,5.0,14.0,73,0.00,,,0.02,0.000000,,2013-02-16 11:52:00,
2013-02-16 05:02:00,36.0,28.0,-100.00,West,271,5.0,14.0,73,0.00,,,0.02,0.000000,,2013-02-16 12:02:00,
2013-02-16 05:12:00,36.0,28.0,-100.00,West,271,5.0,14.0,73,0.00,,,0.02,0.000000,,2013-02-16 12:12:00,
2013-02-16 05:22:00,36.0,28.0,-100.00,West,271,5.0,14.0,73,0.00,,,0.02,0.000000,,2013-02-16 12:22:00,
2013-02-16 05:42:00,33.0,28.0,-100.00,West,260,3.0,12.0,80,0.00,,,0.02,0.000000,,2013-02-16 12:42:00,
2013-02-16 05:52:00,33.0,28.0,-100.00,West,260,3.0,12.0,80,0.00,,,0.02,0.000000,,2013-02-16 12:52:00,
2013-02-16 06:02:00,33.0,28.0,-100.00,West,260,3.0,12.0,80,0.00,,,0.02,0.000000,,2013-02-16 13:02:00,
2013-02-16 06:11:00,33.0,28.0,-100.00,West,260,3.0,12.0,80,0.00,,,0.02,0.000000,,2013-02-16 13:11:00,
2013-02-16 06:21:00,33.0,28.0,-100.00,West,260,3.0,12.0,80,0.00,,,0.02,0.000000,,2013-02-16 13:21:00,
2013-02-16 07:42:00,33.0,28.0,-100.00,WSW,255,2.0,8.0,80,-99.99,,,-99.99,0.000000,,2013-02-16 14:42:00,
2013-02-16 07:52:00,33.0,28.0,-100.00,WSW,255,2.0,8.0,80,-99.99,,,-99.99,0.000000,,2013-02-16 14:52:00,
2013-02-16 08:01:00,33.0,28.0,-100.00,WSW,255,2.0,8.0,80,-99.99,,,-99.99,0.000000,,2013-02-16 15:01:00,
2013-02-16 08:11:00,33.0,28.0,-100.00,WSW,255,2.0,8.0,80,-99.99,,,-99.99,0.000000,,2013-02-16 15:11:00,
2013-02-16 08:21:00,33.0,28.0,-100.00,WSW,255,2.0,8.0,80,-99.99,,,-99.99,0.000000,,2013-02-16 15:21:00,
2013-02-16 08:52:00,33.0,21.0,-100.00,West,261,4.0,8.0,62,0.00,,,0.02,6.000000,,2013-02-16 15:52:00,
2013-02-16 09:01:00,33.0,21.0,-100.00,West,261,4.0,8.0,62,0.00,,,0.02,6.000000,,2013-02-16 16:01:00,
2013-02-16 09:11:00,33.0,21.0,-100.00,West,261,4.0,8.0,62,0.00,,,0.02,6.000000,,2013-02-16 16:11:00,
2013-02-16 09:21:00,33.0,21.0,-100.00,West,261,4.0,8.0,62,0.00,,,0.02,6.000000,,2013-02-16 16:21:00,
2013-02-16 09:52:00,42.0,25.0,-100.00,West,270,9.0,9.0,51,0.00,,,0.02,129.000000,,2013-02-16 16:52:00,
2013-02-16 10:01:00,42.0,25.0,-100.00,West,270,9.0,9.0,51,0.00,,,0.02,129.000000,,2013-02-16 17:01:00,
2013-02-16 10:11:00,42.0,25.0,-100.00,West,270,9.0,9.0,51,0.00,,,0.02,129.000000,,2013-02-16 17:11:00,
2013-02-16 10:21:00,42.0,25.0,-100.00,West,270,9.0,9.0,51,0.00,,,0.02,129.000000,,2013-02-16 17:21:00,
2013-02-16 10:52:00,46.0,26.0,-100.00,WNW,294,5.0,15.0,46,0.00,,,0.02,314.000000,,2013-02-16 17:52:00,
2013-02-16 11:02:00,46.0,26.0,-100.00,WNW,294,5.0,15.0,46,0.00,,,0.02,314.000000,,2013-02-16 18:02:00,
2013-02-16 11:11:00,46.0,26.0,-100.00,WNW,294,5.0,15.0,46,0.00,,,0.02,314.000000,,2013-02-16 18:11:00,
2013-02-16 11:21:00,46.0,26.0,-100.00,WNW,294,5.0,15.0,46,0.00,,,0.02,314.000000,,2013-02-16 18:21:00,
2013-02-16 11:52:00,48.0,26.0,-100.00,West,280,6.0,15.0,42,0.00,,,0.02,467.000000,,2013-02-16 18:52:00,
2013-02-16 12:02:00,48.0,26.0,-100.00,West,280,6.0,15.0,42,0.00,,,0.02,467.000000,,2013-02-16 19:02:00,
2013-02-16 12:11:00,48.0,26.0,-100.00,West,280,6.0,15.0,42,0.00,,,0.02,467.000000,,2013-02-16 19:11:00,
2013-02-16 12:21:00,48.0,26.0,-100.00,West,280,6.0,15.0,42,0.00,,,0.02,467.000000,,2013-02-16 19:21:00,
2013-02-16 12:42:00,53.0,29.0,-100.00,West,281,6.0,12.0,40,0.00,,,0.02,580.000000,,2013-02-16 19:42:00,
2013-02-16 12:52:00,53.0,29.0,-100.00,West,281,6.0,12.0,40,0.00,,,0.02,580.000000,,2013-02-16 19:52:00,
2013-02-16 13:11:00,53.0,29.0,-100.00,West,281,6.0,12.0,40,0.00,,,0.02,580.000000,,2013-02-16 20:11:00,
2013-02-16 13:21:00,53.0,29.0,-100.00,West,281,6.0,12.0,40,0.00,,,0.02,580.000000,,2013-02-16 20:21:00,
2013-02-16 13:42:00,54.0,30.0,-100.00,WNW,295,5.0,14.0,40,0.00,,,0.02,631.000000,,2013-02-16 20:42:00,
2013-02-16 13:52:00,54.0,30.0,-100.00,WNW,295,5.0,14.0,40,0.00,,,0.02,631.000000,,2013-02-16 20:52:00,
2013-02-16 14:02:00,54.0,30.0,-100.00,WNW,295,5.0,14.0,40,0.00,,,0.02,631.000000,,2013-02-16 21:02:00,
2013-02-16 14:11:00,54.0,30.0,-100.00,WNW,295,5.0,14.0,40,0.00,,,0.02,631.000000,,2013-02-16 21:11:00,
2013-02-16 14:21:00,54.0,30.0,-100.00,WNW,295,5.0,14.0,40,0.00,,,0.02,631.000000,,2013-02-16 21:21:00,
2013-02-16 14:52:00,51.0,24.0,-100.00,West,266,4.0,13.0,35,0.00,,,0.01,614.000000,,2013-02-16 21:52:00,
2013-02-16 15:01:00,51.0,24.0,-100.00,West,266,4.0,13.0,35,0.00,,,0.01,614.000000,,2013-02-16 22:01:00,
2013-02-16 15:11:00,51.0,24.0,-100.00,West,266,4.0,13.0,35,0.00,,,0.01,614.000000,,2013-02-16 22:11:00,
2013-02-16 15:21:00,51.0,24.0,-100.00,West,266,4.0,13.0,35,0.00,,,0.01,614.000000,,2013-02-16 22:21:00,
2013-02-16 15:52:00,58.0,30.0,-100.00,West,276,5.0,11.0,34,0.00,,,0.00,569.000000,,2013-02-16 22:52:00,
2013-02-16 16:52:00,58.0,36.0,-100.00,NW,317,2.0,12.0,44,-99.99,,,0.00,427.000000,,2013-02-16 23:52:00,
2013-02-16 17:02:00,58.0,36.0,-100.00,NW,317,2.0,12.0,44,-99.99,,,0.00,427.000000,,2013-02-17 00:02:00,
2013-02-16 17:52:00,51.0,36.0,-100.00,NNW,339,0.0,9.0,56,-99.99,,,0.00,222.000000,,2013-02-17 00:52:00,
2013-02-16 18:01:00,51.0,36.0,-100.00,NNW,339,0.0,9.0,56,-99.99,,,0.00,222.000000,,2013-02-17 01:01:00,
2013-02-16 18:11:00,51.0,36.0,-100.00,NNW,339,0.0,9.0,56,-99.99,,,0.00,222.000000,,2013-02-17 01:11:00,
2013-02-16 18:21:00,51.0,36.0,-100.00,NNW,339,0.0,9.0,56,-99.99,,,0.00,222.000000,,2013-02-17 01:21:00,
2013-02-16 18:52:00,43.0,31.0,-100.00,ENE,58,0.0,3.0,63,-99.99,,,0.00,20.000000,,2013-02-17 01:52:00,
2013-02-16 19:01:00,43.0,31.0,-100.00,ENE,58,0.0,3.0,63,-99.99,,,0.00,20.000000,,2013-02-17 02:01:00,
2013-02-16 19:11:00,43.0,31.0,-100.00,ENE,58,0.0,3.0,63,-99.99,,,0.00,20.000000,,2013-02-17 02:11:00,
2013-02-16 19:21:00,43.0,31.0,-100.00,ENE,58,0.0,3.0,63,-99.99,,,0.00,20.000000,,2013-02-17 02:21:00,
2013-02-16 19:42:00,41.0,32.0,-100.00,SSW,196,0.0,2.0,70,0.00,,,0.00,0.000000,,2013-02-17 02:42:00,
2013-02-16 19:52:00,41.0,32.0,-100.00,SSW,196,0.0,2.0,70,0.00,,,0.00,0.000000,,2013-02-17 02:52:00,
2013-02-16 20:02:00,41.0,32.0,-100.00,SSW,196,0.0,2.0,70,0.00,,,0.00,0.000000,,2013-02-17 03:02:00,
2013-02-16 20:11:00,41.0,32.0,-100.00,SSW,196,0.0,2.0,70,0.00,,,0.00,0.000000,,2013-02-17 03:11:00,
2013-02-16 20:21:00,41.0,32.0,-100.00,SSW,196,0.0,2.0,70,0.00,,,0.00,0.000000,,2013-02-17 03:21:00,
2013-02-16 20:42:00,36.0,29.0,-100.00,SSW,210,3.0,4.0,76,-99.99,,,0.00,0.000000,,2013-02-17 03:42:00,
2013-02-16 20:52:00,36.0,29.0,-100.00,SSW,210,3.0,4.0,76,-99.99,,,0.00,0.000000,,2013-02-17 03:52:00,
2013-02-16 21:01:00,36.0,29.0,-100.00,SSW,210,3.0,4.0,76,-99.99,,,0.00,0.000000,,2013-02-17 04:01:00,
2013-02-16 21:11:00,36.0,29.0,-100.00,SSW,210,3.0,4.0,76,-99.99,,,0.00,0.000000,,2013-02-17 04:11:00,
2013-02-16 21:21:00,36.0,29.0,-100.00,SSW,210,3.0,4.0,76,-99.99,,,0.00,0.000000,,2013-02-17 04:21:00,
2013-02-16 21:52:00,35.0,28.0,-100.00,SSW,202,1.0,7.0,74,0.00,,,0.00,0.000000,,2013-02-17 04:52:00,
2013-02-16 22:02:00,35.0,28.0,-100.00,SSW,202,1.0,7.0,74,0.00,,,0.00,0.000000,,2013-02-17 05:02:00,
2013-02-16 22:12:00,35.0,28.0,-100.00,SSW,202,1.0,7.0,74,0.00,,,0.00,0.000000,,2013-02-17 05:12:00,
2013-02-16 22:22:00,35.0,28.0,-100.00,SSW,202,1.0,7.0,74,0.00,,,0.00,0.000000,,2013-02-17 05:22:00,
2013-02-16 22:52:00,34.0,27.0,-100.00,South,186,1.0,8.0,74,0.00,,,0.00,0.000000,,2013-02-17 05:52:00,
2013-02-16 23:02:00,34.0,27.0,-100.00,South,186,1.0,8.0,74,0.00,,,0.00,0.000000,,2013-02-17 06:02:00,
2013-02-16 23:11:00,34.0,27.0,-100.00,South,186,1.0,8.0,74,0.00,,,0.00,0.000000,,2013-02-17 06:11:00,
2013-02-16 23:21:00,34.0,27.0,-100.00,South,186,1.0,8.0,74,0.00,,,0.00,0.000000,,2013-02-17 06:21:00,
2013-02-16 23:52:00,36.0,24.0,-100.00,WSW,240,4.0,9.0,62,0.00,,,0.00,0.000000,,2013-02-17 06:52:00,